Time;durP1;ratioP1;P1;durP2;ratioP2;P2;SDS_P1;SDS_P2;PMS_P1;PMS_P2;Temp;Humidity;BMP_temperature;BMP_pressure;BME280_temperature;BME280_humidity;BME280_pressure;Samples;Min_cycle;Max_cycle;Signal;HPM_P1;HPM_P2
2023/12/25 00:01:37;;;;;;;2.97;1.73;;;14.90;81.70;;;;;;5029007;28;20033;-78
2023/12/25 00:04:02;;;;;;;3.03;1.90;;;14.80;81.60;;;;;;5028085;28;20075;-78
2023/12/25 00:06:28;;;;;;;2.58;1.77;;;14.90;81.70;;;;;;5042841;28;20367;-78
2023/12/25 00:08:54;;;;;;;1.67;1.55;;;14.80;81.60;;;;;;5008950;28;20763;-77
2023/12/25 00:11:20;;;;;;;2.10;1.77;;;14.90;81.70;;;;;;4998564;28;20412;-78
2023/12/25 00:13:47;;;;;;;2.65;1.80;;;14.80;81.70;;;;;;5032776;28;20119;-77
2023/12/25 00:16:13;;;;;;;3.38;1.75;;;14.90;81.70;;;;;;5016479;28;20091;-78
2023/12/25 00:18:38;;;;;;;3.25;1.98;;;14.90;81.70;;;;;;5028266;28;20041;-77
2023/12/25 00:21:04;;;;;;;3.85;1.77;;;14.90;81.70;;;;;;5026945;28;20030;-77
2023/12/25 00:23:30;;;;;;;3.10;1.80;;;14.90;81.70;;;;;;5027403;28;20079;-77
2023/12/25 00:25:56;;;;;;;3.50;1.88;;;14.90;81.70;;;;;;5046723;28;20378;-78
2023/12/25 00:28:21;;;;;;;2.60;1.80;;;14.80;81.60;;;;;;5047650;28;20597;-79
2023/12/25 00:30:47;;;;;;;3.83;2.38;;;14.90;81.70;;;;;;5040890;28;20033;-78
2023/12/25 00:33:13;;;;;;;1.73;1.63;;;14.90;81.70;;;;;;5008934;28;20025;-78
2023/12/25 00:35:38;;;;;;;2.63;1.52;;;14.90;81.70;;;;;;5010710;28;20124;-79
2023/12/25 00:38:04;;;;;;;2.17;1.73;;;14.90;81.70;;;;;;5031103;28;20028;-77
2023/12/25 00:40:30;;;;;;;2.60;1.70;;;14.90;81.70;;;;;;5006706;28;20085;-79
2023/12/25 00:42:56;;;;;;;3.60;1.65;;;14.90;81.70;;;;;;5029966;28;20552;-80
2023/12/25 00:45:22;;;;;;;2.22;1.73;;;14.90;81.70;;;;;;5026915;28;20405;-78
2023/12/25 00:47:47;;;;;;;2.25;1.60;;;14.80;81.70;;;;;;5025521;28;20501;-79
2023/12/25 00:50:13;;;;;;;2.83;1.65;;;14.90;81.70;;;;;;5038199;28;20441;-81
2023/12/25 00:52:39;;;;;;;2.15;1.50;;;14.90;81.70;;;;;;5013702;28;20476;-80
2023/12/25 00:55:05;;;;;;;2.05;1.48;;;14.90;81.70;;;;;;5039533;28;20078;-80
2023/12/25 00:57:31;;;;;;;2.17;1.60;;;14.90;81.70;;;;;;5048037;28;20516;-78
2023/12/25 00:59:57;;;;;;;1.70;1.45;;;14.90;81.70;;;;;;5007400;28;20133;-78
2023/12/25 01:02:22;;;;;;;2.78;1.63;;;14.90;81.70;;;;;;4999788;28;20117;-79
2023/12/25 01:04:48;;;;;;;1.63;1.52;;;14.90;81.70;;;;;;5010894;28;20553;-78
2023/12/25 01:07:17;;;;;;;2.88;1.73;;;14.80;81.60;;;;;;5035040;28;20539;-80
2023/12/25 01:09:43;;;;;;;3.95;1.73;;;14.90;81.70;;;;;;5009177;28;20029;-78
2023/12/25 01:12:09;;;;;;;2.05;1.70;;;14.90;81.70;;;;;;5029509;28;20049;-80
2023/12/25 01:14:35;;;;;;;2.97;1.60;;;14.90;81.70;;;;;;5031917;28;20017;-78
2023/12/25 01:17:01;;;;;;;1.63;1.50;;;14.90;81.70;;;;;;5032519;28;20539;-79
2023/12/25 01:19:27;;;;;;;3.40;1.80;;;14.90;81.70;;;;;;5027715;28;20025;-78
2023/12/25 01:21:53;;;;;;;2.33;1.70;;;14.90;81.70;;;;;;5032295;28;20159;-78
2023/12/25 01:24:19;;;;;;;2.15;1.50;;;14.90;81.70;;;;;;5044103;28;20424;-78
2023/12/25 01:26:45;;;;;;;2.85;1.60;;;14.90;81.70;;;;;;5015225;28;20675;-77
2023/12/25 01:29:11;;;;;;;2.17;1.63;;;14.90;81.70;;;;;;5029581;28;20109;-78
2023/12/25 01:31:36;;;;;;;3.22;1.90;;;14.90;81.70;;;;;;5048856;28;20397;-78
2023/12/25 01:34:02;;;;;;;2.63;1.42;;;14.90;81.70;;;;;;5026981;28;20032;-79
2023/12/25 01:36:28;;;;;;;2.28;1.50;;;14.90;81.70;;;;;;5028904;28;20044;-78
2023/12/25 01:38:54;;;;;;;3.08;1.58;;;14.90;81.70;;;;;;5015184;28;20095;-78
2023/12/25 01:41:21;;;;;;;3.70;1.80;;;14.90;81.70;;;;;;5016451;28;20025;-78
2023/12/25 01:43:46;;;;;;;1.67;1.30;;;14.90;81.70;;;;;;5040603;28;20393;-79
2023/12/25 01:46:13;;;;;;;2.25;1.30;;;14.80;81.60;;;;;;5024246;28;20057;-78
2023/12/25 01:48:41;;;;;;;2.58;1.30;;;14.90;81.70;;;;;;5008005;28;20048;-79
2023/12/25 01:51:07;;;;;;;2.55;1.50;;;14.90;81.70;;;;;;5026772;28;20029;-78
2023/12/25 01:53:34;;;;;;;2.70;1.42;;;14.90;81.70;;;;;;5005857;28;20064;-78
2023/12/25 01:56:00;;;;;;;3.40;1.65;;;14.90;81.70;;;;;;5038770;28;20116;-78
2023/12/25 01:58:25;;;;;;;3.10;1.48;;;14.90;81.70;;;;;;5007090;28;20573;-78
2023/12/25 02:00:51;;;;;;;3.50;1.60;;;14.90;81.70;;;;;;5025749;28;20045;-77
2023/12/25 02:03:17;;;;;;;3.17;1.20;;;14.90;81.70;;;;;;4994565;28;20038;-77
2023/12/25 02:05:44;;;;;;;2.30;1.35;;;14.90;81.70;;;;;;4995683;28;20032;-78
2023/12/25 02:08:13;;;;;;;1.25;1.10;;;14.90;81.70;;;;;;5014925;28;20037;-78
2023/12/25 02:10:39;;;;;;;1.50;1.17;;;14.90;81.70;;;;;;5021126;28;20037;-78
2023/12/25 02:13:05;;;;;;;1.65;1.10;;;14.90;81.70;;;;;;4990880;28;20052;-78
2023/12/25 02:15:31;;;;;;;1.13;1.02;;;14.90;81.70;;;;;;5037990;28;20064;-79
2023/12/25 02:17:58;;;;;;;1.30;1.20;;;14.90;81.70;;;;;;5008769;28;20158;-79
2023/12/25 02:20:24;;;;;;;2.25;1.58;;;14.90;81.70;;;;;;5024967;28;20083;-78
2023/12/25 02:22:51;;;;;;;1.70;1.15;;;14.80;81.70;;;;;;5022676;28;20048;-79
2023/12/25 02:25:32;;;;;;;1.50;1.00;;;14.80;81.70;;;;;;5036166;28;20034;-78
2023/12/25 02:27:57;;;;;;;2.05;1.20;;;14.80;81.70;;;;;;5036975;28;20450;-78
2023/12/25 02:30:23;;;;;;;1.17;0.98;;;14.80;81.70;;;;;;5027153;28;20079;-78
2023/12/25 02:32:51;;;;;;;1.20;1.10;;;14.80;81.70;;;;;;5024234;28;20037;-78
2023/12/25 02:35:17;;;;;;;1.08;0.90;;;14.80;81.80;;;;;;5028070;28;20032;-79
2023/12/25 02:37:43;;;;;;;1.02;0.80;;;14.80;81.80;;;;;;5033572;28;20037;-79
2023/12/25 02:40:09;;;;;;;0.98;0.80;;;14.80;81.80;;;;;;5010602;28;20129;-78
2023/12/25 02:42:35;;;;;;;1.05;0.85;;;14.70;81.70;;;;;;5042264;28;20804;-78
2023/12/25 02:45:02;;;;;;;0.90;0.90;;;14.80;81.80;;;;;;5004383;28;20136;-78
2023/12/25 02:47:27;;;;;;;2.28;0.95;;;14.80;81.90;;;;;;5011993;28;20116;-78
2023/12/25 02:49:53;;;;;;;1.20;1.10;;;14.70;81.80;;;;;;5029427;28;20119;-78
2023/12/25 02:52:21;;;;;;;2.13;1.20;;;14.70;81.90;;;;;;5017374;28;20111;-77
2023/12/25 02:54:51;;;;;;;1.92;1.10;;;14.70;81.90;;;;;;5015236;28;20073;-78
2023/12/25 02:57:17;;;;;;;1.15;1.00;;;14.70;81.90;;;;;;5048444;28;20025;-78
2023/12/25 02:59:42;;;;;;;1.13;0.93;;;14.70;81.90;;;;;;5015333;28;20032;-77
2023/12/25 03:02:08;;;;;;;2.25;1.20;;;14.70;81.90;;;;;;5032893;28;20032;-79
2023/12/25 03:04:34;;;;;;;1.67;1.08;;;14.70;81.90;;;;;;5031984;28;20033;-78
2023/12/25 03:06:59;;;;;;;2.50;1.20;;;14.70;81.90;;;;;;5030115;28;20083;-79
2023/12/25 03:09:25;;;;;;;2.38;1.17;;;14.60;81.90;;;;;;5034351;28;20107;-77
2023/12/25 03:11:51;;;;;;;1.45;1.10;;;14.60;81.90;;;;;;5031082;28;20079;-78
2023/12/25 03:14:17;;;;;;;2.40;1.20;;;14.60;81.90;;;;;;5018557;28;20025;-78
2023/12/25 03:16:43;;;;;;;4.00;1.58;;;14.60;81.90;;;;;;5011637;28;20029;-78
2023/12/25 03:19:08;;;;;;;2.92;1.23;;;14.60;81.90;;;;;;5011869;28;20041;-78
2023/12/25 03:21:34;;;;;;;2.65;1.20;;;14.60;81.90;;;;;;5018932;28;20036;-78
2023/12/25 03:24:00;;;;;;;1.75;1.40;;;14.60;82.50;;;;;;5033205;28;20034;-79
2023/12/25 03:26:26;;;;;;;1.98;1.20;;;14.60;81.90;;;;;;5029308;28;20083;-78
2023/12/25 03:28:51;;;;;;;3.63;1.38;;;14.60;81.90;;;;;;5030929;28;20063;-77
2023/12/25 03:31:18;;;;;;;1.85;1.20;;;14.60;81.90;;;;;;5028555;28;20025;-78
2023/12/25 03:33:44;;;;;;;1.83;1.20;;;14.60;81.90;;;;;;5032392;28;20457;-78
2023/12/25 03:36:10;;;;;;;1.83;1.20;;;14.60;81.90;;;;;;5011840;28;20021;-79
2023/12/25 03:38:36;;;;;;;2.70;1.25;;;14.60;81.90;;;;;;5005780;28;20037;-78
2023/12/25 03:41:02;;;;;;;3.70;1.38;;;14.60;82.00;;;;;;5026860;28;20390;-78
2023/12/25 03:43:28;;;;;;;2.42;1.48;;;14.60;81.90;;;;;;5029310;28;20029;-78
2023/12/25 03:45:54;;;;;;;3.20;1.60;;;14.60;82.00;;;;;;5020286;28;20107;-77
2023/12/25 03:48:20;;;;;;;3.13;1.42;;;14.50;81.90;;;;;;5014444;28;20378;-78
2023/12/25 03:50:46;;;;;;;3.35;1.45;;;14.60;82.00;;;;;;5046814;28;20032;-78
2023/12/25 03:53:12;;;;;;;2.08;1.23;;;14.60;81.90;;;;;;5008242;28;20041;-77
2023/12/25 03:55:38;;;;;;;3.47;1.52;;;14.50;81.90;;;;;;5019467;28;20025;-78
2023/12/25 03:58:04;;;;;;;3.25;1.50;;;14.60;82.00;;;;;;5026413;28;20021;-78
2023/12/25 04:00:30;;;;;;;1.80;1.20;;;14.50;81.90;;;;;;4993555;28;20064;-79
2023/12/25 04:02:59;;;;;;;2.92;1.48;;;14.50;81.90;;;;;;5027219;28;20056;-78
2023/12/25 04:05:24;;;;;;;1.85;1.20;;;14.50;81.90;;;;;;5025517;28;20478;-78
2023/12/25 04:07:50;;;;;;;2.30;1.23;;;14.50;81.90;;;;;;4996744;28;20032;-78
2023/12/25 04:10:17;;;;;;;3.33;1.63;;;14.50;81.90;;;;;;5043793;28;20025;-78
2023/12/25 04:12:43;;;;;;;1.48;1.10;;;14.50;81.90;;;;;;5022051;28;20124;-79
2023/12/25 04:15:09;;;;;;;4.10;1.27;;;14.50;81.90;;;;;;5043427;28;20037;-79
2023/12/25 04:17:36;;;;;;;2.35;1.38;;;14.50;81.90;;;;;;5031649;28;20025;-78
2023/12/25 04:20:02;;;;;;;1.80;1.20;;;14.50;81.90;;;;;;5010669;28;20120;-78
2023/12/25 04:22:27;;;;;;;3.97;1.58;;;14.50;82.00;;;;;;5032296;28;20048;-79
2023/12/25 04:24:53;;;;;;;1.38;1.10;;;14.50;82.00;;;;;;5030232;28;20033;-78
2023/12/25 04:27:22;;;;;;;3.13;1.27;;;14.50;81.90;;;;;;5018858;28;20041;-78
2023/12/25 04:29:48;;;;;;;3.80;1.33;;;14.50;82.00;;;;;;5023158;28;20086;-78
2023/12/25 04:32:14;;;;;;;4.90;1.42;;;14.50;81.90;;;;;;5006535;28;20021;-79
2023/12/25 04:34:40;;;;;;;2.35;1.20;;;14.50;82.60;;;;;;5041780;28;20029;-78
2023/12/25 04:37:06;;;;;;;3.03;1.13;;;14.50;82.00;;;;;;5032164;28;20033;-77
2023/12/25 04:39:33;;;;;;;2.10;1.10;;;14.50;81.90;;;;;;5013430;28;20040;-80
2023/12/25 04:41:59;;;;;;;2.53;1.17;;;14.50;82.00;;;;;;5015996;28;20133;-79
2023/12/25 04:44:25;;;;;;;2.65;1.25;;;14.50;82.00;;;;;;4989272;28;20092;-78
2023/12/25 04:46:52;;;;;;;2.08;1.27;;;14.50;82.00;;;;;;5013514;28;20119;-80
2023/12/25 04:49:18;;;;;;;3.72;1.30;;;14.50;82.00;;;;;;4997374;28;20516;-78
2023/12/25 04:51:44;;;;;;;1.70;1.05;;;14.50;82.00;;;;;;5031970;28;20037;-78
2023/12/25 04:54:09;;;;;;;2.97;1.45;;;14.50;82.00;;;;;;5032384;28;20041;-78
2023/12/25 04:56:35;;;;;;;2.30;1.38;;;14.50;82.00;;;;;;5008195;28;20033;-78
2023/12/25 04:59:01;;;;;;;2.28;1.10;;;14.40;82.00;;;;;;5009956;28;20029;-78
2023/12/25 05:01:27;;;;;;;4.32;1.38;;;14.50;82.00;;;;;;5008770;28;20048;-78
2023/12/25 05:03:53;;;;;;;3.47;1.00;;;14.50;82.00;;;;;;5022911;28;20040;-78
2023/12/25 05:06:18;;;;;;;2.22;1.20;;;14.40;82.00;;;;;;5018454;28;20134;-78
2023/12/25 05:08:44;;;;;;;2.65;1.30;;;14.40;82.00;;;;;;5014098;28;20346;-79
2023/12/25 05:11:10;;;;;;;2.60;1.40;;;14.40;82.00;;;;;;5031928;28;20029;-79
2023/12/25 05:13:36;;;;;;;1.65;1.30;;;14.50;82.00;;;;;;5016709;28;20046;-78
2023/12/25 05:16:02;;;;;;;2.97;1.23;;;14.50;82.00;;;;;;4989872;28;20040;-78
2023/12/25 05:18:28;;;;;;;1.70;1.17;;;14.50;82.00;;;;;;5024069;28;20037;-78
2023/12/25 05:20:54;;;;;;;1.83;1.20;;;14.40;82.00;;;;;;5003846;28;20385;-80
2023/12/25 05:23:22;;;;;;;1.75;1.10;;;14.50;82.00;;;;;;5015006;28;20075;-80
2023/12/25 05:25:48;;;;;;;2.25;1.15;;;14.40;82.00;;;;;;5023883;28;20107;-79
2023/12/25 05:28:14;;;;;;;2.35;1.25;;;14.40;82.00;;;;;;5037487;28;20831;-79
2023/12/25 05:30:40;;;;;;;4.90;1.40;;;14.40;82.00;;;;;;5013570;28;20029;-79
2023/12/25 05:33:06;;;;;;;1.65;1.10;;;14.40;82.00;;;;;;5007835;28;20508;-78
2023/12/25 05:35:32;;;;;;;2.28;1.13;;;14.50;82.00;;;;;;5028889;28;20366;-78
2023/12/25 05:37:58;;;;;;;2.70;1.30;;;14.40;82.00;;;;;;5031468;28;20029;-78
2023/12/25 05:40:24;;;;;;;1.60;1.17;;;14.40;82.00;;;;;;5021570;28;20037;-78
2023/12/25 05:42:50;;;;;;;2.88;1.20;;;14.50;82.00;;;;;;5012255;28;20461;-79
2023/12/25 05:45:19;;;;;;;1.95;1.27;;;14.40;82.00;;;;;;5022603;28;20371;-78
2023/12/25 05:47:45;;;;;;;2.28;1.52;;;14.40;82.00;;;;;;5010184;28;20389;-77
2023/12/25 05:50:11;;;;;;;2.65;1.15;;;14.40;82.00;;;;;;5000611;28;20018;-76
2023/12/25 05:52:37;;;;;;;1.80;1.27;;;14.50;82.00;;;;;;5041658;28;20382;-77
2023/12/25 05:55:02;;;;;;;2.78;1.17;;;14.40;81.90;;;;;;5017328;28;20027;-76
2023/12/25 05:57:28;;;;;;;1.48;0.90;;;14.50;81.90;;;;;;5011902;28;20060;-76
2023/12/25 05:59:54;;;;;;;1.08;1.00;;;14.50;81.90;;;;;;5016287;28;20479;-77
2023/12/25 06:02:20;;;;;;;1.60;1.10;;;14.50;81.90;;;;;;5028123;28;20043;-76
2023/12/25 06:04:46;;;;;;;1.52;0.93;;;14.50;81.90;;;;;;5020335;28;20547;-77
2023/12/25 06:07:12;;;;;;;2.35;1.10;;;14.50;81.90;;;;;;5016186;28;20033;-77
2023/12/25 06:09:38;;;;;;;2.25;1.27;;;14.50;81.90;;;;;;5031761;28;20032;-77
2023/12/25 06:12:04;;;;;;;1.23;1.00;;;14.40;81.90;;;;;;5049714;28;20087;-77
2023/12/25 06:14:30;;;;;;;2.25;1.30;;;14.50;82.00;;;;;;5006050;28;20045;-79
2023/12/25 06:16:56;;;;;;;1.65;1.10;;;14.50;81.90;;;;;;5010229;28;20116;-79
2023/12/25 06:19:21;;;;;;;2.33;1.15;;;14.40;81.90;;;;;;5034356;28;20473;-77
2023/12/25 06:21:47;;;;;;;2.25;1.27;;;14.50;81.90;;;;;;5015005;28;20040;-78
2023/12/25 06:24:13;;;;;;;1.75;1.00;;;14.40;81.90;;;;;;5044696;28;20037;-78
2023/12/25 06:26:39;;;;;;;1.10;1.05;;;14.50;81.90;;;;;;5028203;28;20036;-77
2023/12/25 06:29:05;;;;;;;2.45;1.17;;;14.50;81.90;;;;;;5032177;28;20462;-77
2023/12/25 06:31:31;;;;;;;2.00;1.20;;;14.50;81.90;;;;;;5029854;28;20033;-77
2023/12/25 06:33:57;;;;;;;2.03;1.30;;;14.40;81.90;;;;;;5023832;28;20503;-78
2023/12/25 06:36:23;;;;;;;1.75;1.02;;;14.50;81.90;;;;;;5029283;28;20021;-78
2023/12/25 06:38:49;;;;;;;2.20;0.93;;;14.40;81.90;;;;;;5030862;28;20033;-77
2023/12/25 06:41:15;;;;;;;1.83;1.10;;;14.40;81.90;;;;;;5026445;28;20036;-77
2023/12/25 06:43:41;;;;;;;1.85;1.00;;;14.40;81.90;;;;;;5031005;28;20045;-77
2023/12/25 06:46:06;;;;;;;1.35;1.10;;;14.50;81.90;;;;;;5027932;28;20049;-78
2023/12/25 06:48:32;;;;;;;1.02;0.98;;;14.40;81.90;;;;;;5015719;28;20086;-78
2023/12/25 06:50:58;;;;;;;1.02;0.90;;;14.40;81.90;;;;;;5031188;28;20420;-78
2023/12/25 06:53:24;;;;;;;2.03;1.10;;;14.50;82.00;;;;;;5011088;28;20057;-77
2023/12/25 06:55:50;;;;;;;2.55;1.10;;;14.40;81.90;;;;;;5025753;28;20068;-76
2023/12/25 06:58:16;;;;;;;1.55;1.02;;;14.40;82.00;;;;;;5023491;28;20033;-77
2023/12/25 07:00:41;;;;;;;0.90;0.90;;;14.40;82.00;;;;;;5031394;28;20432;-77
2023/12/25 07:03:07;;;;;;;0.90;0.90;;;14.50;82.00;;;;;;5028104;28;20038;-77
2023/12/25 07:05:33;;;;;;;1.17;1.00;;;14.40;81.90;;;;;;5031761;28;20064;-77
2023/12/25 07:07:59;;;;;;;1.50;0.98;;;14.40;82.00;;;;;;5032419;28;20067;-78
2023/12/25 07:10:25;;;;;;;2.10;1.00;;;14.40;82.00;;;;;;5039871;28;20573;-78
2023/12/25 07:12:51;;;;;;;0.90;0.90;;;14.40;82.00;;;;;;4999820;28;20045;-77
2023/12/25 07:15:17;;;;;;;1.13;0.90;;;14.40;82.00;;;;;;5004805;28;20444;-78
2023/12/25 07:17:43;;;;;;;1.63;1.10;;;14.40;82.00;;;;;;5012494;28;20457;-78
2023/12/25 07:20:10;;;;;;;0.90;0.90;;;14.40;82.00;;;;;;5028556;28;20043;-78
2023/12/25 07:22:36;;;;;;;1.15;1.05;;;14.40;82.00;;;;;;5006277;28;20068;-77
2023/12/25 07:25:05;;;;;;;0.90;0.82;;;14.40;82.00;;;;;;5026652;28;20029;-77
2023/12/25 07:27:32;;;;;;;0.88;0.88;;;14.30;82.00;;;;;;5017236;28;20033;-78
2023/12/25 07:29:58;;;;;;;1.48;0.90;;;14.40;82.10;;;;;;5047700;28;20036;-78
2023/12/25 07:32:24;;;;;;;0.77;0.77;;;14.40;82.10;;;;;;5026137;28;20037;-78
2023/12/25 07:34:51;;;;;;;0.80;0.80;;;14.40;82.10;;;;;;5049213;28;20033;-78
2023/12/25 07:37:16;;;;;;;0.70;0.70;;;14.30;82.00;;;;;;5048556;28;20040;-78
2023/12/25 07:39:42;;;;;;;0.80;0.80;;;14.30;82.00;;;;;;4994715;28;20389;-78
2023/12/25 07:42:08;;;;;;;1.02;0.90;;;14.30;82.10;;;;;;5035005;28;20040;-78
2023/12/25 07:44:39;;;;;;;1.85;0.95;;;14.30;82.10;;;;;;5020538;28;20053;-78
2023/12/25 07:47:05;;;;;;;0.75;0.75;;;14.30;82.10;;;;;;5031931;28;20034;-80
2023/12/25 07:49:31;;;;;;;1.00;0.88;;;14.30;82.10;;;;;;5013931;28;20033;-77
2023/12/25 07:51:57;;;;;;;0.90;0.90;;;14.30;82.10;;;;;;5031269;28;20555;-78
2023/12/25 07:54:23;;;;;;;0.80;0.80;;;14.30;82.10;;;;;;5012385;28;20040;-78
2023/12/25 07:56:48;;;;;;;0.80;0.80;;;14.30;82.10;;;;;;5030930;28;20035;-78
2023/12/25 07:59:14;;;;;;;1.27;0.90;;;14.30;82.10;;;;;;5013623;28;20553;-77
2023/12/25 08:01:40;;;;;;;0.80;0.80;;;14.30;82.20;;;;;;5016748;28;20071;-77
2023/12/25 08:04:05;;;;;;;0.80;0.80;;;14.20;82.10;;;;;;5018148;28;20539;-80
2023/12/25 08:06:31;;;;;;;0.80;0.80;;;14.30;82.20;;;;;;5010494;28;20033;-78
2023/12/25 08:08:57;;;;;;;1.15;0.90;;;14.30;82.20;;;;;;5018032;28;20119;-79
2023/12/25 08:11:23;;;;;;;1.13;0.82;;;14.20;82.10;;;;;;5032530;28;20021;-78
2023/12/25 08:13:48;;;;;;;0.98;0.80;;;14.20;82.10;;;;;;5043091;28;20131;-78
2023/12/25 08:16:14;;;;;;;0.80;0.80;;;14.20;82.20;;;;;;5008761;28;20500;-79
2023/12/25 08:18:40;;;;;;;0.98;0.90;;;14.20;82.10;;;;;;5010054;28;20029;-78
2023/12/25 08:21:07;;;;;;;0.82;0.82;;;14.20;82.10;;;;;;5026225;28;20033;-78
2023/12/25 08:23:33;;;;;;;1.35;0.95;;;14.20;82.20;;;;;;5025656;28;20033;-78
2023/12/25 08:26:00;;;;;;;0.70;0.70;;;14.20;82.20;;;;;;5024738;28;20066;-79
2023/12/25 08:28:26;;;;;;;0.70;0.70;;;14.20;82.20;;;;;;5026425;28;20505;-79
2023/12/25 08:30:51;;;;;;;1.35;0.80;;;14.20;82.20;;;;;;5028500;28;20133;-79
2023/12/25 08:33:17;;;;;;;1.38;0.90;;;14.20;82.20;;;;;;5032217;28;20029;-78
2023/12/25 08:35:43;;;;;;;1.13;1.00;;;14.20;82.20;;;;;;5033198;28;20029;-78
2023/12/25 08:38:09;;;;;;;0.90;0.90;;;14.20;82.20;;;;;;5011426;28;20085;-77
2023/12/25 08:40:35;;;;;;;0.80;0.80;;;14.10;82.10;;;;;;5045605;28;20036;-78
2023/12/25 08:43:01;;;;;;;1.33;0.90;;;14.10;82.10;;;;;;5029482;28;20405;-78
2023/12/25 08:45:26;;;;;;;0.98;0.77;;;14.10;82.10;;;;;;4992876;28;20041;-78
2023/12/25 08:47:52;;;;;;;0.85;0.85;;;14.10;82.10;;;;;;5033348;28;20039;-79
2023/12/25 08:50:18;;;;;;;1.08;0.90;;;14.10;82.10;;;;;;5029702;28;20061;-79
2023/12/25 08:52:44;;;;;;;0.98;0.80;;;14.10;82.10;;;;;;5037875;28;20025;-77
2023/12/25 08:55:10;;;;;;;0.77;0.77;;;14.10;82.10;;;;;;5006043;28;20512;-78
2023/12/25 08:57:36;;;;;;;0.88;0.88;;;14.10;82.10;;;;;;5029665;28;20017;-79
2023/12/25 09:00:06;;;;;;;0.80;0.80;;;14.10;82.10;;;;;;5029713;28;20095;-77
2023/12/25 09:02:32;;;;;;;0.88;0.88;;;14.10;82.10;;;;;;5028611;28;21995;-78
2023/12/25 09:04:58;;;;;;;1.20;1.00;;;14.10;82.10;;;;;;5018098;28;20172;-79
2023/12/25 09:07:24;;;;;;;1.60;1.10;;;14.10;82.10;;;;;;5039005;28;20029;-77
2023/12/25 09:09:52;;;;;;;0.80;0.80;;;14.10;82.10;;;;;;5012510;28;20029;-77
2023/12/25 09:12:18;;;;;;;0.90;0.90;;;14.10;82.10;;;;;;5013433;28;20037;-77
2023/12/25 09:14:45;;;;;;;0.80;0.80;;;14.10;82.10;;;;;;5008598;28;20095;-78
2023/12/25 09:17:11;;;;;;;0.73;0.73;;;14.10;82.20;;;;;;5009055;28;20048;-77
2023/12/25 09:19:37;;;;;;;0.90;0.90;;;14.10;82.10;;;;;;5029355;28;20454;-77
2023/12/25 09:22:03;;;;;;;1.17;1.00;;;14.00;82.10;;;;;;5023711;28;20039;-78
2023/12/25 09:24:29;;;;;;;1.55;0.95;;;14.00;82.10;;;;;;5032026;28;20374;-77
2023/12/25 09:26:55;;;;;;;0.70;0.70;;;14.10;82.10;;;;;;5010300;28;20048;-78
2023/12/25 09:29:21;;;;;;;0.80;0.80;;;14.10;82.20;;;;;;5027942;28;20096;-78
2023/12/25 09:31:47;;;;;;;1.00;1.00;;;14.10;82.20;;;;;;5030022;28;20094;-77
2023/12/25 09:34:13;;;;;;;0.75;0.75;;;14.10;82.20;;;;;;5022659;28;20053;-79
2023/12/25 09:36:38;;;;;;;0.77;0.77;;;14.10;82.20;;;;;;5023859;28;20183;-78
2023/12/25 09:39:04;;;;;;;0.90;0.90;;;14.10;82.20;;;;;;5007594;28;20029;-78
2023/12/25 09:41:32;;;;;;;0.80;0.80;;;14.10;82.20;;;;;;5031561;28;20049;-78
2023/12/25 09:44:02;;;;;;;0.90;0.90;;;14.00;82.10;;;;;;5002853;28;20043;-78
2023/12/25 09:46:31;;;;;;;1.83;1.05;;;14.00;82.10;;;;;;5025500;28;20045;-78
2023/12/25 09:48:57;;;;;;;2.05;1.00;;;14.10;82.10;;;;;;5041468;28;20029;-79
2023/12/25 09:51:25;;;;;;;1.10;1.00;;;14.10;82.10;;;;;;5022957;28;20056;-78
2023/12/25 09:53:51;;;;;;;0.80;0.80;;;14.10;82.10;;;;;;5020032;28;20374;-78
2023/12/25 09:56:21;;;;;;;0.90;0.80;;;14.10;82.10;;;;;;5029761;28;20037;-78
2023/12/25 09:58:48;;;;;;;0.95;0.88;;;14.10;82.10;;;;;;5022984;28;20071;-79
2023/12/25 10:01:15;;;;;;;0.90;0.90;;;14.10;82.10;;;;;;5031894;28;20041;-77
2023/12/25 10:03:45;;;;;;;0.70;0.70;;;14.10;82.10;;;;;;5028852;28;20040;-77
2023/12/25 10:06:11;;;;;;;0.90;0.90;;;14.10;82.10;;;;;;5036870;28;20033;-77
2023/12/25 10:08:38;;;;;;;0.93;0.70;;;14.10;82.10;;;;;;5040201;28;20029;-78
2023/12/25 10:11:04;;;;;;;0.98;0.90;;;14.10;82.10;;;;;;5029838;28;20044;-77
2023/12/25 10:13:30;;;;;;;1.00;0.90;;;14.10;82.10;;;;;;5030600;28;20488;-78
2023/12/25 10:15:56;;;;;;;0.73;0.73;;;14.10;82.10;;;;;;5045716;28;20120;-77
2023/12/25 10:18:22;;;;;;;0.80;0.80;;;14.10;82.10;;;;;;5011315;28;20182;-78
2023/12/25 10:20:59;;;;;;;0.73;0.73;;;14.10;82.70;;;;;;5038945;28;20028;-78
2023/12/25 10:23:35;;;;;;;0.82;0.82;;;14.10;82.10;;;;;;5027976;28;20059;-77
2023/12/25 10:26:03;;;;;;;0.80;0.80;;;14.10;82.10;;;;;;5046774;28;20060;-79
2023/12/25 10:28:30;;;;;;;1.20;0.90;;;14.10;82.00;;;;;;5025026;28;20052;-77
2023/12/25 10:31:04;;;;;;;0.90;0.90;;;14.10;82.10;;;;;;5002158;28;20029;-78
2023/12/25 10:33:31;;;;;;;0.80;0.80;;;14.10;82.10;;;;;;5038573;28;20037;-77
2023/12/25 10:36:04;;;;;;;0.80;0.80;;;14.10;82.00;;;;;;5017826;28;20032;-78
2023/12/25 10:38:35;;;;;;;0.85;0.85;;;14.10;82.10;;;;;;5025985;28;20037;-78
2023/12/25 10:41:21;;;;;;;0.80;0.80;;;14.10;82.10;;;;;;5013491;28;20091;-79
2023/12/25 10:43:53;;;;;;;1.02;0.90;;;14.10;82.10;;;;;;5040610;28;20533;-78
2023/12/25 10:46:21;;;;;;;0.80;0.80;;;14.10;82.10;;;;;;5023960;28;20048;-78
2023/12/25 10:48:53;;;;;;;0.80;0.80;;;14.10;82.10;;;;;;5025989;28;20068;-78
2023/12/25 10:51:30;;;;;;;0.90;0.90;;;14.10;82.70;;;;;;5041609;28;20021;-79
2023/12/25 10:54:00;;;;;;;0.73;0.73;;;14.10;82.10;;;;;;5037340;28;20032;-78
2023/12/25 10:56:27;;;;;;;1.00;0.90;;;14.10;82.00;;;;;;5040089;28;20316;-80
2023/12/25 10:58:56;;;;;;;0.93;0.90;;;14.10;82.00;;;;;;5025537;28;20040;-78
2023/12/25 11:01:28;;;;;;;0.80;0.80;;;14.10;82.00;;;;;;5009477;28;20047;-76
2023/12/25 11:03:54;;;;;;;0.90;0.90;;;14.10;82.10;;;;;;5035264;28;20382;-77
2023/12/25 11:06:22;;;;;;;1.23;1.05;;;14.10;82.00;;;;;;5032228;28;20415;-77
2023/12/25 11:08:48;;;;;;;0.95;0.93;;;14.20;82.10;;;;;;5008162;28;20041;-80
2023/12/25 11:11:14;;;;;;;0.90;0.90;;;14.20;82.10;;;;;;5027729;28;20098;-77
2023/12/25 11:13:41;;;;;;;0.80;0.80;;;14.20;82.10;;;;;;5040469;28;20017;-78
2023/12/25 11:16:08;;;;;;;1.10;1.00;;;14.10;82.10;;;;;;5028974;28;20036;-79
2023/12/25 11:18:37;;;;;;;0.90;0.90;;;14.20;82.10;;;;;;5036305;28;20033;-78
2023/12/25 11:21:05;;;;;;;1.00;1.00;;;14.20;82.10;;;;;;5028414;28;20048;-78
2023/12/25 11:23:33;;;;;;;0.93;0.90;;;14.20;82.10;;;;;;5027506;28;20381;-78
2023/12/25 11:25:59;;;;;;;1.15;0.88;;;14.20;82.10;;;;;;5041971;28;20060;-78
2023/12/25 11:28:26;;;;;;;0.93;0.90;;;14.20;82.10;;;;;;5013875;28;20022;-77
2023/12/25 11:30:52;;;;;;;0.80;0.80;;;14.20;82.10;;;;;;5013374;28;20065;-79
2023/12/25 11:33:22;;;;;;;0.80;0.80;;;14.20;82.10;;;;;;5012038;28;20033;-76
2023/12/25 11:35:48;;;;;;;1.15;1.10;;;14.20;82.10;;;;;;5042030;28;20048;-79
2023/12/25 11:38:20;;;;;;;0.80;0.80;;;14.20;82.10;;;;;;5031977;28;20025;-78
2023/12/25 11:40:48;;;;;;;1.45;1.20;;;14.20;82.10;;;;;;5030145;28;20040;-78
2023/12/25 11:43:16;;;;;;;0.82;0.82;;;14.20;82.10;;;;;;5044189;28;20458;-78
2023/12/25 11:45:53;;;;;;;0.75;0.75;;;14.20;82.10;;;;;;5029312;28;20493;-78
2023/12/25 11:48:19;;;;;;;0.80;0.80;;;14.20;82.10;;;;;;5041196;28;20721;-78
2023/12/25 11:50:46;;;;;;;0.80;0.80;;;14.20;82.10;;;;;;5025654;28;20033;-77
2023/12/25 11:53:35;;;;;;;0.95;0.95;;;14.20;82.10;;;;;;5029874;28;20108;-77
2023/12/25 11:56:02;;;;;;;0.88;0.80;;;14.20;82.90;;;;;;5019267;28;20947;-79
2023/12/25 11:58:29;;;;;;;0.70;0.70;;;14.20;82.10;;;;;;5022662;28;20033;-79
2023/12/25 12:00:54;;;;;;;0.70;0.70;;;14.20;82.10;;;;;;5029094;28;20029;-79
2023/12/25 12:03:20;;;;;;;0.82;0.82;;;14.20;82.10;;;;;;5020786;28;20510;-78
2023/12/25 12:05:47;;;;;;;0.90;0.90;;;14.30;82.10;;;;;;5029566;28;20385;-79
2023/12/25 12:08:12;;;;;;;0.80;0.80;;;14.30;82.20;;;;;;5020469;28;20045;-79
2023/12/25 12:10:38;;;;;;;0.98;0.90;;;14.30;82.10;;;;;;5013826;28;20115;-78
2023/12/25 12:13:04;;;;;;;0.70;0.70;;;14.20;82.10;;;;;;5011256;28;20559;-80
2023/12/25 12:15:30;;;;;;;0.85;0.85;;;14.20;82.10;;;;;;5030850;28;20033;-78
2023/12/25 12:17:56;;;;;;;1.63;1.20;;;14.30;82.10;;;;;;5011054;28;20041;-78
2023/12/25 12:20:22;;;;;;;0.80;0.80;;;14.20;82.10;;;;;;5028241;28;20095;-78
2023/12/25 12:22:49;;;;;;;1.10;1.00;;;14.30;82.20;;;;;;5011903;28;20045;-80
2023/12/25 12:25:15;;;;;;;0.93;0.82;;;14.30;82.10;;;;;;5035636;28;20025;-76
2023/12/25 12:27:42;;;;;;;0.70;0.70;;;14.30;82.10;;;;;;5030266;28;20099;-78
2023/12/25 12:30:08;;;;;;;0.70;0.70;;;14.30;82.10;;;;;;5027155;28;20493;-78
2023/12/25 12:32:35;;;;;;;1.38;0.80;;;14.30;82.10;;;;;;5023467;28;20045;-78
2023/12/25 12:35:02;;;;;;;0.80;0.80;;;14.30;82.10;;;;;;5019588;28;20029;-79
2023/12/25 12:37:29;;;;;;;1.00;0.85;;;14.30;82.20;;;;;;5027650;28;20041;-78
2023/12/25 12:40:03;;;;;;;0.93;0.90;;;14.30;82.10;;;;;;5041540;28;20029;-80
2023/12/25 12:42:33;;;;;;;2.55;1.05;;;14.30;82.20;;;;;;5012112;28;20064;-79
2023/12/25 12:45:03;;;;;;;1.08;0.88;;;14.30;82.20;;;;;;5023796;28;20054;-79